Time;durP1;ratioP1;P1;durP2;ratioP2;P2;SDS_P1;SDS_P2;PMS_P1;PMS_P2;Temp;Humidity;BMP_temperature;BMP_pressure;BME280_temperature;BME280_humidity;BME280_pressure;Samples;Min_cycle;Max_cycle;Signal;HPM_P1;HPM_P2
2022/01/15 00:04:35;;;;;;;23.60;5.20;;;;;;;0.38;82.84;100650.61;207915;1318;141311;-73
2022/01/15 00:09:41;;;;;;;20.20;5.50;;;;;;;0.33;82.55;100649.31;206936;1319;154266;-71
2022/01/15 00:14:45;;;;;;;19.60;7.00;;;;;;;0.25;82.91;100650.29;207059;1319;141763;-71
2022/01/15 00:20:00;;;;;;;21.10;9.00;;;;;;;0.17;82.70;100648.30;206954;1319;141568;-71
2022/01/15 00:25:03;;;;;;;9.20;4.10;;;;;;;0.16;83.19;100647.02;207118;1321;140377;-74
2022/01/15 00:30:08;;;;;;;16.00;5.70;;;;;;;0.17;83.16;100649.19;207177;1318;140723;-75
2022/01/15 00:35:13;;;;;;;16.60;4.80;;;;;;;0.10;82.94;100648.95;206485;1321;140889;-70
2022/01/15 00:40:22;;;;;;;25.20;6.50;;;;;;;0.04;83.03;100648.46;207276;1318;142098;-68
2022/01/15 00:45:32;;;;;;;14.50;4.60;;;;;;;0.03;83.04;100648.91;206725;1320;140301;-71
2022/01/15 00:50:39;;;;;;;17.80;6.00;;;;;;;-0.02;83.15;100652.56;206412;1320;233045;-69
2022/01/15 00:55:48;;;;;;;11.80;5.10;;;;;;;-0.06;83.34;100652.05;206560;1319;140802;-70
2022/01/15 01:00:56;;;;;;;19.20;7.00;;;;;;;-0.14;83.05;100658.09;206322;1321;139575;-71
2022/01/15 01:06:19;;;;;;;11.90;6.10;;;;;;;-0.15;83.35;100665.06;207198;1318;140411;-68
2022/01/15 01:11:41;;;;;;;12.80;4.30;;;;;;;-0.16;83.41;100668.16;206708;1319;140210;-70
2022/01/15 01:27:42;;;;;;;14.70;4.70;;;;;;;-0.25;83.26;100661.84;207466;1321;141433;-72
2022/01/15 01:37:59;;;;;;;22.70;8.30;;;;;;;-0.29;83.25;100666.09;208405;1320;142683;-73
2022/01/15 01:43:15;;;;;;;19.30;5.50;;;;;;;-0.31;83.32;100664.15;208765;1317;141835;-73
2022/01/15 01:48:17;;;;;;;17.80;4.90;;;;;;;-0.31;83.10;100667.35;207328;1321;141052;-73
2022/01/15 01:53:20;;;;;;;14.00;6.80;;;;;;;-0.31;83.14;100663.63;208879;1321;141851;-73
2022/01/15 01:58:26;;;;;;;16.90;6.60;;;;;;;-0.30;83.12;100655.41;207574;1321;141281;-75
2022/01/15 02:03:28;;;;;;;13.50;3.60;;;;;;;-0.37;83.40;100650.52;207012;1318;140773;-74
2022/01/15 02:08:36;;;;;;;17.20;4.30;;;;;;;-0.41;83.22;100648.88;207184;1320;141877;-74
2022/01/15 02:13:42;;;;;;;17.00;4.60;;;;;;;-0.46;83.06;100644.04;206771;1320;207562;-70
2022/01/15 02:18:54;;;;;;;14.00;5.00;;;;;;;-0.46;83.32;100646.18;206494;1319;141386;-70
2022/01/15 02:23:58;;;;;;;17.70;5.30;;;;;;;-0.49;83.41;100647.09;206430;1320;140854;-69
2022/01/15 02:29:02;;;;;;;14.20;6.20;;;;;;;-0.55;83.40;100647.65;206735;1320;140975;-69
2022/01/15 02:34:05;;;;;;;21.80;4.50;;;;;;;-0.58;83.38;100650.58;206943;1320;142125;-70
2022/01/15 02:39:07;;;;;;;18.00;4.30;;;;;;;-0.60;83.31;100653.09;206548;1320;140847;-75
2022/01/15 02:44:16;;;;;;;13.60;6.40;;;;;;;-0.61;83.50;100650.92;207023;1319;142009;-75
2022/01/15 02:49:20;;;;;;;17.00;5.10;;;;;;;-0.66;83.43;100649.46;206639;1320;141093;-73
2022/01/15 02:54:27;;;;;;;7.10;2.60;;;;;;;-0.72;83.55;100649.42;206715;1319;140757;-72
2022/01/15 02:59:31;;;;;;;22.40;4.60;;;;;;;-0.79;83.58;100644.83;206934;1321;141243;-72
2022/01/15 03:04:34;;;;;;;18.50;5.70;;;;;;;-0.80;83.54;100647.42;206963;1318;142958;-73
2022/01/15 03:09:40;;;;;;;15.80;5.20;;;;;;;-0.81;83.67;100649.21;207391;1318;140869;-71
2022/01/15 03:14:47;;;;;;;16.30;4.30;;;;;;;-0.84;83.37;100651.77;206942;1318;140563;-71
2022/01/15 03:19:49;;;;;;;8.00;3.90;;;;;;;-0.90;83.63;100648.30;206626;1320;140855;-70
2022/01/15 03:24:56;;;;;;;6.20;2.10;;;;;;;-0.90;83.83;100644.45;207805;1320;141306;-70
2022/01/15 03:30:00;;;;;;;;;;;;;;;-0.90;83.63;100643.46;206805;1319;142116;-71
2022/01/15 03:35:04;;;;;;;15.00;4.50;;;;;;;-0.96;83.67;100643.80;208425;1320;126460;-74
2022/01/15 03:40:13;;;;;;;240.40;94.00;;;;;;;-0.98;83.65;100647.89;207602;1321;140354;-76
2022/01/15 03:45:17;;;;;;;16.60;6.70;;;;;;;-1.01;83.49;100656.98;208328;1317;141263;-74
2022/01/15 03:50:20;;;;;;;30.10;7.60;;;;;;;-0.99;83.87;100661.35;208637;1316;140250;-75
2022/01/15 03:55:28;;;;;;;12.30;4.50;;;;;;;-0.97;83.88;100667.41;208506;1319;141086;-72
2022/01/15 04:00:35;;;;;;;8.20;5.20;;;;;;;-0.97;83.66;100673.42;207733;1321;140337;-69
2022/01/15 04:05:37;;;;;;;15.40;4.00;;;;;;;-0.97;83.70;100667.09;207952;1321;142081;-71
2022/01/15 04:10:45;;;;;;;15.40;4.40;;;;;;;-0.95;83.74;100661.52;207047;1319;140552;-72
2022/01/15 04:15:53;;;;;;;18.80;7.50;;;;;;;-0.98;83.81;100653.39;206704;1320;140586;-73
2022/01/15 04:20:58;;;;;;;17.70;7.00;;;;;;;-1.05;83.92;100666.38;207537;1319;141278;-75
2022/01/15 04:26:01;;;;;;;27.60;7.30;;;;;;;-1.13;83.84;100675.30;206826;1320;140202;-72
2022/01/15 04:31:26;;;;;;;26.80;9.20;;;;;;;-1.11;84.06;100680.01;207426;1320;141017;-76
2022/01/15 04:36:31;;;;;;;29.50;12.50;;;;;;;-1.09;84.12;100689.08;207057;1319;140490;-66
2022/01/15 04:41:35;;;;;;;28.40;7.90;;;;;;;-1.12;84.09;100689.20;206762;1320;140102;-73
2022/01/15 04:46:52;;;;;;;13.00;4.50;;;;;;;-1.15;84.22;100688.18;206642;1321;139965;-77
2022/01/15 04:51:59;;;;;;;26.10;6.60;;;;;;;-1.17;84.07;100687.88;207171;1320;142282;-75
2022/01/15 04:57:06;;;;;;;15.10;6.70;;;;;;;-1.19;84.50;100686.00;207209;1319;139826;-75
2022/01/15 05:02:10;;;;;;;15.30;4.40;;;;;;;-1.22;84.28;100683.66;208041;1319;140689;-75
2022/01/15 05:07:16;;;;;;;22.60;5.40;;;;;;;-1.22;84.23;100685.20;207081;1320;140020;-76
2022/01/15 05:12:31;;;;;;;12.50;5.00;;;;;;;-1.22;84.31;100695.51;207111;1320;140944;-74
2022/01/15 05:17:37;;;;;;;19.00;7.80;;;;;;;-1.27;84.24;100697.48;207609;1320;140295;-75
2022/01/15 05:22:40;;;;;;;21.30;5.30;;;;;;;-1.27;84.40;100703.11;207723;1322;139464;-74
2022/01/15 05:27:47;;;;;;;14.90;5.50;;;;;;;-1.24;84.52;100708.40;207120;1321;141457;-73
2022/01/15 05:32:56;;;;;;;20.30;7.50;;;;;;;-1.22;84.54;100712.62;207927;1320;140943;-76
2022/01/15 05:38:00;;;;;;;18.60;7.20;;;;;;;-1.22;84.42;100713.65;207876;1320;139873;-78
2022/01/15 05:43:06;;;;;;;14.30;5.70;;;;;;;-1.27;84.28;100711.84;207288;1323;140904;-76
2022/01/15 05:48:29;;;;;;;28.30;6.30;;;;;;;-1.32;84.49;100713.29;206829;1320;142223;-77
2022/01/15 05:53:33;;;;;;;16.20;6.30;;;;;;;-1.30;84.54;100713.81;206937;1320;621615;-77
2022/01/15 05:58:55;;;;;;;19.10;7.20;;;;;;;-1.31;84.52;100721.90;207876;1324;139510;-76
2022/01/15 06:03:58;;;;;;;21.40;6.90;;;;;;;-1.35;84.36;100730.47;207965;1324;139836;-77
2022/01/15 06:09:27;;;;;;;16.80;5.70;;;;;;;-1.39;84.63;100740.40;207790;1319;140057;-77
2022/01/15 06:14:31;;;;;;;14.00;6.30;;;;;;;-1.37;84.62;100743.36;206607;1322;142272;-72
2022/01/15 06:19:36;;;;;;;24.20;4.90;;;;;;;-1.37;84.52;100737.46;207029;1320;140722;-74
2022/01/15 06:24:55;;;;;;;39.40;10.50;;;;;;;-1.39;84.56;100739.02;206826;1320;140268;-70
2022/01/15 06:30:04;;;;;;;11.20;5.70;;;;;;;-1.40;84.78;100747.26;206838;1323;140807;-71
2022/01/15 06:35:15;;;;;;;19.00;5.80;;;;;;;-1.34;84.86;100752.67;206789;1321;141398;-74
2022/01/15 06:40:19;;;;;;;12.40;4.00;;;;;;;-1.34;84.71;100751.32;207440;1320;140273;-73
2022/01/15 06:45:32;;;;;;;13.00;6.30;;;;;;;-1.41;84.61;100760.57;206716;1320;140945;-77
2022/01/15 06:50:37;;;;;;;16.30;7.40;;;;;;;-1.44;84.60;100763.89;207075;1320;140627;-73
2022/01/15 06:55:41;;;;;;;19.20;5.60;;;;;;;-1.41;84.41;100763.43;206850;1319;141891;-70
2022/01/15 07:00:47;;;;;;;18.20;5.80;;;;;;;-1.39;84.72;100769.70;206465;1321;141088;-67
2022/01/15 07:06:00;;;;;;;16.80;9.40;;;;;;;-1.40;84.75;100776.71;206791;1318;139604;-76
2022/01/15 07:11:07;;;;;;;19.90;9.40;;;;;;;-1.39;84.74;100782.55;207271;1321;141606;-72
2022/01/15 07:16:11;;;;;;;12.70;6.00;;;;;;;-1.32;84.92;100791.75;206357;1320;140454;-75
2022/01/15 07:21:17;;;;;;;10.30;5.90;;;;;;;-1.26;84.86;100804.98;206907;1320;140200;-77
2022/01/15 07:26:34;;;;;;;19.40;7.10;;;;;;;-1.27;84.71;100803.70;206801;1321;152210;-76
2022/01/15 07:31:40;;;;;;;19.00;7.20;;;;;;;-1.28;84.46;100801.02;207536;1320;141260;-77
2022/01/15 07:36:57;;;;;;;17.10;6.20;;;;;;;-1.24;84.57;100800.55;206790;1323;142118;-76
2022/01/15 07:42:01;;;;;;;24.20;7.00;;;;;;;-1.20;84.40;100795.42;207340;1320;140717;-76
2022/01/15 07:47:04;;;;;;;16.80;6.50;;;;;;;-1.17;84.78;100792.55;208768;1322;141642;-68
2022/01/15 07:52:24;;;;;;;;;;;;;;;;;;;;;
2022/01/15 07:57:43;;;;;;;41.40;22.10;;;;;;;-0.98;84.70;100811.15;207619;1323;141614;-75
2022/01/15 08:02:52;;;;;;;27.60;7.10;;;;;;;-0.89;84.55;100818.91;207677;1323;141752;-75
2022/01/15 08:07:55;;;;;;;15.50;6.40;;;;;;;-0.85;84.56;100820.77;207657;1327;141816;-70
2022/01/15 08:12:57;;;;;;;16.60;8.10;;;;;;;-0.81;84.59;100823.02;207470;1324;140168;-78
2022/01/15 08:18:06;;;;;;;28.90;7.90;;;;;;;-0.77;84.10;100825.52;206267;1321;139897;-74
2022/01/15 08:23:16;;;;;;;26.50;8.30;;;;;;;-0.71;84.47;100831.39;206929;1319;141328;-75
2022/01/15 08:28:19;;;;;;;21.00;7.60;;;;;;;-0.63;84.44;100833.34;207559;1326;140973;-72
2022/01/15 08:33:26;;;;;;;18.50;6.00;;;;;;;-0.61;84.34;100830.85;207368;1322;139785;-73
2022/01/15 08:38:29;;;;;;;26.00;9.00;;;;;;;-0.59;84.10;100829.06;206964;1324;141695;-74
2022/01/15 08:43:54;;;;;;;20.50;7.10;;;;;;;-0.51;84.34;100821.00;206604;1319;141132;-73
2022/01/15 08:48:58;;;;;;;20.90;8.40;;;;;;;-0.47;84.08;100825.20;207268;1320;140538;-75
2022/01/15 08:54:01;;;;;;;22.20;9.40;;;;;;;-0.35;84.46;100830.25;207667;1319;144337;-73
2022/01/15 08:59:04;;;;;;;18.30;6.00;;;;;;;-0.27;84.21;100836.89;207144;1322;140321;-77
2022/01/15 09:04:28;;;;;;;22.70;11.10;;;;;;;-0.22;84.09;100838.52;207958;1322;139699;-72
2022/01/15 09:09:32;;;;;;;20.70;9.80;;;;;;;-0.07;84.25;100841.73;207805;1319;141145;-73
2022/01/15 09:14:34;;;;;;;17.80;8.10;;;;;;;0.03;84.09;100844.33;208352;1319;140697;-74
2022/01/15 09:19:39;;;;;;;27.40;10.00;;;;;;;0.07;84.10;100846.00;207733;1318;141920;-74
2022/01/15 09:24:45;;;;;;;23.20;7.70;;;;;;;0.12;83.78;100851.16;207750;1319;142647;-76
2022/01/15 09:35:15;;;;;;;22.70;6.40;;;;;;;0.27;83.89;100846.23;207026;1319;141325;-74
2022/01/15 09:40:20;;;;;;;16.50;6.20;;;;;;;0.31;83.44;100846.88;207473;1319;142098;-75
2022/01/15 09:45:24;;;;;;;15.90;7.20;;;;;;;0.39;83.55;100850.73;207611;1319;140064;-76
2022/01/15 09:50:30;;;;;;;12.00;5.00;;;;;;;0.44;83.53;100857.64;207074;1319;140347;-70
2022/01/15 09:55:34;;;;;;;24.70;7.60;;;;;;;0.51;83.33;100853.33;207519;1319;140227;-76
2022/01/15 10:00:40;;;;;;;15.10;5.50;;;;;;;0.66;83.71;100854.87;207558;1321;141937;-67
2022/01/15 10:05:45;;;;;;;100.50;32.80;;;;;;;0.78;83.40;100854.61;207358;1321;139432;-73
2022/01/15 10:10:58;;;;;;;20.40;7.90;;;;;;;0.82;83.24;100846.56;209073;1318;141516;-76
2022/01/15 10:16:04;;;;;;;19.80;9.80;;;;;;;0.88;83.05;100848.25;208124;1320;140994;-79
2022/01/15 10:21:22;;;;;;;13.60;6.30;;;;;;;0.97;82.96;100845.48;208982;1318;142383;-80
2022/01/15 10:26:31;;;;;;;22.00;10.20;;;;;;;1.02;82.70;100838.17;208181;1321;140296;-76
2022/01/15 10:31:47;;;;;;;16.10;7.20;;;;;;;1.06;82.50;100843.04;208247;1319;141523;-77
2022/01/15 10:36:55;;;;;;;19.30;6.90;;;;;;;1.13;82.56;100838.35;208317;1319;142438;-78
2022/01/15 10:42:33;;;;;;;14.30;6.90;;;;;;;1.22;82.17;100843.90;207024;1316;141667;-78
2022/01/15 10:47:56;;;;;;;12.10;6.40;;;;;;;1.28;82.58;100844.70;207958;1318;140171;-71
2022/01/15 10:53:11;;;;;;;19.60;8.40;;;;;;;1.34;82.26;100838.02;207007;1319;140951;-78
2022/01/15 10:58:16;;;;;;;19.70;6.90;;;;;;;1.41;81.85;100834.77;206434;1319;141530;-71
2022/01/15 11:03:22;;;;;;;14.80;6.70;;;;;;;1.46;82.12;100841.23;207065;1320;140996;-77
2022/01/15 11:08:37;;;;;;;29.60;9.50;;;;;;;1.48;81.88;100848.55;206839;1318;140017;-74
2022/01/15 11:13:42;;;;;;;16.30;7.30;;;;;;;1.51;81.61;100844.96;207410;1319;140350;-67
2022/01/15 11:18:50;;;;;;;18.70;9.30;;;;;;;1.55;81.64;100841.79;207198;1321;140255;-76
2022/01/15 11:23:52;;;;;;;18.80;8.40;;;;;;;1.56;81.60;100841.11;206348;1319;139565;-77
2022/01/15 11:28:57;;;;;;;23.80;9.80;;;;;;;1.67;81.70;100838.33;207801;1321;159519;-75
2022/01/15 11:34:06;;;;;;;17.20;8.00;;;;;;;1.82;81.48;100836.30;207214;1324;142317;-72
2022/01/15 11:39:11;;;;;;;16.30;7.40;;;;;;;1.92;81.20;100836.84;206680;1319;140145;-74
2022/01/15 11:44:37;;;;;;;20.70;10.60;;;;;;;2.03;81.01;100842.10;207559;1319;142117;-75
2022/01/15 11:49:45;;;;;;;20.00;8.70;;;;;;;2.19;80.95;100832.90;208236;1319;141169;-74
2022/01/15 11:54:57;;;;;;;;;;;;;;;2.27;80.64;100830.34;207732;1320;142288;-75
2022/01/15 12:00:29;;;;;;;12.40;7.00;;;;;;;2.36;80.11;100827.73;207685;1320;127285;-76
2022/01/15 12:05:34;;;;;;;18.70;8.10;;;;;;;2.43;79.93;100829.42;207343;1320;141628;-75
2022/01/15 12:10:46;;;;;;;21.20;8.80;;;;;;;2.52;79.91;100831.87;207302;1320;141147;-74
2022/01/15 12:16:36;;;;;;;10.20;5.90;;;;;;;2.60;79.44;100832.50;207033;1320;140870;-76
2022/01/15 12:21:47;;;;;;;15.80;6.10;;;;;;;2.64;79.53;100822.89;207721;1320;139765;-77
2022/01/15 12:27:06;;;;;;;15.80;6.90;;;;;;;2.75;79.15;100823.98;208445;1323;140795;-75
2022/01/15 12:32:11;;;;;;;;;;;;;;;2.81;78.49;100829.02;207608;1320;140760;-75
2022/01/15 12:37:15;;;;;;;21.10;7.50;;;;;;;2.78;78.26;100826.38;207756;1320;126310;-72
2022/01/15 12:42:35;;;;;;;16.30;9.10;;;;;;;2.81;78.06;100816.63;207304;1321;140303;-77
2022/01/15 12:47:45;;;;;;;15.20;5.80;;;;;;;2.83;78.00;100819.75;206802;1320;142142;-75
2022/01/15 12:52:59;;;;;;;21.70;6.70;;;;;;;2.83;77.64;100815.36;206808;1320;140754;-76
2022/01/15 12:58:16;;;;;;;17.80;7.00;;;;;;;2.84;76.77;100821.06;206570;1320;141483;-77
2022/01/15 13:03:21;;;;;;;17.90;7.20;;;;;;;2.88;77.17;100819.70;207382;1320;140738;-78
2022/01/15 13:08:34;;;;;;;9.90;5.20;;;;;;;2.92;77.13;100818.11;206637;1319;141095;-79
2022/01/15 13:13:42;;;;;;;17.70;8.50;;;;;;;2.86;76.60;100822.25;206814;1320;141418;-74
2022/01/15 13:18:50;;;;;;;19.20;7.80;;;;;;;2.84;76.59;100829.07;207335;1320;141846;-75
2022/01/15 13:24:11;;;;;;;;;;;;;;;;;;;;;
2022/01/15 13:29:19;;;;;;;18.70;8.20;;;;;;;2.85;76.40;100818.67;206782;1320;162744;-78
2022/01/15 13:34:45;;;;;;;18.50;8.10;;;;;;;2.84;76.32;100817.31;207930;1318;139615;-78
2022/01/15 13:39:49;;;;;;;15.00;7.20;;;;;;;2.80;76.04;100816.20;206732;1319;140369;-79
2022/01/15 13:44:53;;;;;;;25.60;11.40;;;;;;;2.76;76.06;100818.64;206650;1320;140014;-79
2022/01/15 13:55:27;;;;;;;18.80;7.00;;;;;;;2.60;75.66;100813.35;206121;1321;1014651;-78
2022/01/15 14:00:30;;;;;;;16.40;8.30;;;;;;;2.50;75.68;100824.15;207164;1321;139743;-71
2022/01/15 14:05:32;;;;;;;14.40;6.70;;;;;;;2.41;75.70;100832.27;207043;1320;140776;-79
2022/01/15 14:10:40;;;;;;;21.80;8.10;;;;;;;2.32;75.46;100835.46;207204;1320;220375;-79
2022/01/15 14:15:46;;;;;;;16.50;7.70;;;;;;;2.24;75.45;100834.88;207117;1320;139982;-80
2022/01/15 14:25:57;;;;;;;16.60;8.80;;;;;;;2.14;75.67;100835.01;207393;1320;140645;-77
2022/01/15 14:31:01;;;;;;;19.00;8.80;;;;;;;2.10;75.67;100839.86;208126;1321;140409;-73
2022/01/15 14:36:16;;;;;;;17.30;8.00;;;;;;;2.00;75.12;100836.98;208188;1320;139738;-79
2022/01/15 14:41:18;;;;;;;12.50;5.90;;;;;;;1.87;75.12;100834.23;207245;1320;139831;-81
2022/01/15 14:46:49;;;;;;;17.00;7.20;;;;;;;1.72;75.04;100834.34;207556;1317;139879;-81
2022/01/15 14:51:56;;;;;;;23.60;9.70;;;;;;;1.61;75.25;100834.97;207306;1317;140757;-78
2022/01/15 14:56:59;;;;;;;27.10;8.10;;;;;;;1.52;75.48;100830.34;207233;1320;139463;-76
2022/01/15 15:02:01;;;;;;;25.60;10.50;;;;;;;1.41;75.64;100830.89;207813;1319;167410;-69
2022/01/15 15:07:04;;;;;;;20.20;10.60;;;;;;;1.30;75.47;100836.86;207293;1320;141081;-77
2022/01/15 15:12:10;;;;;;;15.70;8.30;;;;;;;1.15;75.67;100833.60;207447;1320;139867;-69
2022/01/15 15:17:13;;;;;;;24.20;8.80;;;;;;;1.01;75.75;100836.88;207404;1320;139470;-81
2022/01/15 15:22:19;;;;;;;26.70;10.00;;;;;;;0.87;75.66;100834.16;206689;1320;140518;-77
2022/01/15 15:27:23;;;;;;;22.20;8.30;;;;;;;0.72;75.83;100838.91;206935;1320;141212;-76
2022/01/15 15:32:26;;;;;;;19.20;7.70;;;;;;;0.58;75.87;100843.91;207255;1320;140596;-77
2022/01/15 15:37:32;;;;;;;16.90;7.50;;;;;;;0.43;75.71;100849.36;206543;1320;140857;-77
2022/01/15 15:42:36;;;;;;;20.00;9.20;;;;;;;0.22;75.61;100849.36;207625;1320;141728;-77
2022/01/15 15:47:39;;;;;;;31.00;11.70;;;;;;;0.06;76.05;100856.98;207395;1320;140677;-79
2022/01/15 15:52:42;;;;;;;22.60;11.60;;;;;;;-0.07;76.28;100855.71;207230;1320;141632;-71
2022/01/15 15:57:44;;;;;;;17.50;8.30;;;;;;;-0.15;76.69;100857.17;207789;1318;140086;-78
2022/01/15 16:02:48;;;;;;;16.90;8.50;;;;;;;-0.29;76.43;100856.45;208017;1320;140997;-78
2022/01/15 16:07:53;;;;;;;20.20;9.90;;;;;;;-0.45;76.46;100859.83;206836;1320;142414;-70
2022/01/15 16:12:58;;;;;;;24.20;10.50;;;;;;;-0.57;76.53;100866.30;207848;1319;141377;-79
2022/01/15 16:18:01;;;;;;;20.80;11.80;;;;;;;-0.62;77.03;100866.26;206957;1319;141620;-79
2022/01/15 16:23:03;;;;;;;31.70;13.60;;;;;;;-0.70;77.08;100874.60;208230;1319;141164;-80
2022/01/15 16:28:06;;;;;;;36.20;18.20;;;;;;;-0.78;77.38;100877.94;207106;1319;141833;-78
2022/01/15 16:33:30;;;;;;;44.30;18.50;;;;;;;-0.80;77.89;100886.47;208442;1317;140684;-69
2022/01/15 16:38:33;;;;;;;46.50;19.00;;;;;;;-0.83;77.88;100887.64;207637;1321;142120;-79
2022/01/15 16:43:37;;;;;;;37.00;20.30;;;;;;;-0.86;78.17;100888.27;207581;1319;142027;-78
2022/01/15 16:48:40;;;;;;;32.50;18.00;;;;;;;-0.83;78.30;100889.85;207220;1318;142017;-73
2022/01/15 16:53:46;;;;;;;45.90;20.20;;;;;;;-0.85;78.54;100893.17;206980;1318;142497;-71
2022/01/15 16:58:48;;;;;;;37.50;20.50;;;;;;;-0.84;78.73;100895.88;207867;1317;141357;-80
2022/01/15 17:03:50;;;;;;;52.40;20.90;;;;;;;-0.86;78.84;100899.60;208406;1319;139853;-81
2022/01/15 17:08:53;;;;;;;47.70;19.90;;;;;;;-0.88;79.10;100898.36;206704;1318;143077;-69
2022/01/15 17:13:55;;;;;;;44.90;21.50;;;;;;;-0.90;79.09;100902.58;207110;1318;142708;-82
2022/01/15 17:18:58;;;;;;;36.60;21.60;;;;;;;-0.91;79.08;100902.96;207140;1319;142169;-72
2022/01/15 17:24:01;;;;;;;56.50;23.50;;;;;;;-0.96;79.16;100906.92;206870;1318;141416;-78
2022/01/15 17:29:04;;;;;;;42.70;21.30;;;;;;;-1.06;79.38;100898.33;207181;1318;141512;-71
2022/01/15 17:34:06;;;;;;;44.40;23.40;;;;;;;-1.17;79.25;100897.73;207045;1318;141076;-78
2022/01/15 17:39:10;;;;;;;50.80;22.70;;;;;;;-1.24;79.65;100904.61;206652;1318;142681;-67
2022/01/15 17:44:12;;;;;;;46.10;21.30;;;;;;;-1.32;79.58;100902.52;206922;1318;142118;-78
2022/01/15 17:49:18;;;;;;;55.80;22.90;;;;;;;-1.33;80.00;100903.61;206972;1318;142203;-79
2022/01/15 17:54:20;;;;;;;50.30;23.90;;;;;;;-1.32;80.17;100900.75;207141;1318;141547;-80
2022/01/15 17:59:23;;;;;;;51.80;23.40;;;;;;;-1.30;80.42;100896.05;206544;1318;141944;-68
2022/01/15 18:04:27;;;;;;;43.60;23.30;;;;;;;-1.35;80.08;100901.73;206924;1318;142096;-79
2022/01/15 18:09:32;;;;;;;42.10;18.40;;;;;;;-1.44;80.09;100898.61;208634;1319;141655;-77
2022/01/15 18:14:35;;;;;;;50.30;23.40;;;;;;;-1.43;80.26;100889.15;207744;1319;141161;-71
2022/01/15 18:19:41;;;;;;;51.10;24.40;;;;;;;-1.40;80.36;100892.03;206902;1318;139670;-75
2022/01/15 18:24:44;;;;;;;55.80;25.10;;;;;;;-1.33;80.90;100891.23;207438;1319;140114;-78
2022/01/15 18:29:49;;;;;;;63.60;27.80;;;;;;;-1.27;80.89;100895.48;206977;1318;141569;-78
2022/01/15 18:34:53;;;;;;;56.20;26.30;;;;;;;-1.23;81.04;100894.05;207840;1318;141023;-78
2022/01/15 18:39:56;;;;;;;60.50;27.10;;;;;;;-1.16;81.03;100888.32;208711;1320;140956;-78
2022/01/15 18:44:58;;;;;;;75.80;32.00;;;;;;;-1.06;81.00;100886.99;206569;1320;141149;-75
2022/01/15 18:50:03;;;;;;;67.70;31.50;;;;;;;-1.02;81.31;100892.54;207961;1320;142871;-77
2022/01/15 18:55:06;;;;;;;66.10;29.00;;;;;;;-0.97;81.34;100895.52;207486;1323;140718;-78
2022/01/15 19:00:13;;;;;;;63.60;25.80;;;;;;;-0.96;81.18;100912.50;206926;1323;140998;-78
2022/01/15 19:05:18;;;;;;;64.10;28.00;;;;;;;-0.91;81.31;100943.98;206941;1321;141439;-77
2022/01/15 19:10:24;;;;;;;;;;;;;;;-0.82;81.30;100989.83;207727;1319;141171;-80
2022/01/15 19:15:29;;;;;;;60.20;30.80;;;;;;;-0.87;81.14;100927.08;207621;1320;126817;-76
2022/01/15 19:20:33;;;;;;;47.60;25.40;;;;;;;-0.89;81.29;100871.69;206699;1319;139950;-77
2022/01/15 19:25:37;;;;;;;56.10;26.40;;;;;;;-0.92;81.35;100900.80;206945;1320;139740;-73
2022/01/15 19:30:40;;;;;;;54.00;26.80;;;;;;;-0.90;81.57;100930.46;206615;1320;140340;-71
2022/01/15 19:35:45;;;;;;;50.10;23.90;;;;;;;-0.87;81.47;100908.73;206797;1320;141691;-78
2022/01/15 19:40:48;;;;;;;55.80;25.30;;;;;;;-0.86;81.47;100864.33;206971;1318;141116;-73
2022/01/15 19:45:54;;;;;;;52.90;24.00;;;;;;;-0.84;81.47;100831.54;207473;1318;139732;-77
2022/01/15 19:50:57;;;;;;;57.30;25.50;;;;;;;-0.92;81.29;100813.07;206869;1321;140289;-77
2022/01/15 19:56:01;;;;;;;48.90;21.70;;;;;;;-0.95;81.45;100829.68;206451;1319;141492;-67
2022/01/15 20:01:17;;;;;;;50.30;24.10;;;;;;;-0.88;81.52;100880.02;206620;1320;141453;-70
2022/01/15 20:06:23;;;;;;;42.60;24.50;;;;;;;-0.89;81.27;100892.15;206502;1321;139889;-75
2022/01/15 20:11:27;;;;;;;42.60;21.90;;;;;;;-0.91;81.36;100881.88;206543;1318;140142;-78
2022/01/15 20:16:30;;;;;;;51.90;22.60;;;;;;;-0.91;81.47;100877.50;207474;1321;141150;-69
2022/01/15 20:21:33;;;;;;;55.40;23.30;;;;;;;-0.90;81.36;100852.48;207056;1320;140447;-77
2022/01/15 20:26:39;;;;;;;52.10;23.20;;;;;;;-0.88;81.33;100836.78;206450;1320;140994;-75
2022/01/15 20:31:44;;;;;;;58.70;27.50;;;;;;;-0.89;81.23;100838.40;208187;1320;141711;-77
2022/01/15 20:36:52;;;;;;;36.20;15.40;;;;;;;-0.89;81.40;100847.14;208372;1318;140141;-76
2022/01/15 20:41:55;;;;;;;;;;;;;;;-0.92;81.29;100853.91;208059;1320;141017;-81
2022/01/15 20:46:59;;;;;;;53.50;22.60;;;;;;;-0.93;81.02;100871.10;208857;1319;126987;-74
2022/01/15 20:52:02;;;;;;;58.20;22.50;;;;;;;-0.90;81.26;100855.40;207841;1319;140981;-82
2022/01/15 20:57:11;;;;;;;46.40;24.30;;;;;;;-0.89;81.26;100859.70;208115;1321;140679;-79
2022/01/15 21:02:41;;;;;;;46.20;24.30;;;;;;;-0.92;81.18;100856.98;208515;1318;142136;-77
2022/01/15 21:07:45;;;;;;;56.60;23.40;;;;;;;-0.95;81.17;100870.92;207283;1318;143237;-74
2022/01/15 21:12:50;;;;;;;49.90;22.70;;;;;;;-0.97;80.98;100876.64;207500;1320;141648;-69
2022/01/15 21:17:56;;;;;;;57.00;27.50;;;;;;;-0.99;81.05;100879.08;207665;1319;152087;-71
2022/01/15 21:22:59;;;;;;;60.40;27.90;;;;;;;-0.99;80.99;100885.56;207706;1321;142333;-71
2022/01/15 21:28:02;;;;;;;55.60;24.60;;;;;;;-1.07;81.10;100884.48;207134;1318;142036;-69
2022/01/15 21:33:07;;;;;;;60.20;24.10;;;;;;;-1.15;80.98;100874.13;206893;1319;141586;-70
2022/01/15 21:38:11;;;;;;;68.40;32.30;;;;;;;-1.18;81.00;100865.16;207113;1315;143063;-67
2022/01/15 21:43:32;;;;;;;;;;;;;;;;;;;;;
2022/01/15 21:48:36;;;;;;;60.10;28.20;;;;;;;-1.25;81.33;100846.80;207047;1318;142414;-68
2022/01/15 21:53:39;;;;;;;62.80;31.70;;;;;;;-1.22;81.26;100849.69;199600;1318;10328952;-67
2022/01/15 21:58:44;;;;;;;67.30;31.40;;;;;;;-1.21;81.39;100854.27;206957;1318;141404;-70
2022/01/15 22:03:47;;;;;;;62.10;30.50;;;;;;;-1.20;81.63;100865.88;207320;1319;140364;-74
2022/01/15 22:08:58;;;;;;;62.50;29.30;;;;;;;-1.20;81.52;100875.79;207745;1319;141313;-73
2022/01/15 22:14:02;;;;;;;78.60;31.70;;;;;;;-1.23;81.54;100885.15;207204;1318;142948;-74
2022/01/15 22:19:18;;;;;;;63.30;29.80;;;;;;;-1.25;81.47;100881.00;206667;1319;141812;-74
2022/01/15 22:24:21;;;;;;;68.70;26.60;;;;;;;-1.28;81.15;100880.52;208344;1320;141364;-74
2022/01/15 22:29:24;;;;;;;61.70;31.00;;;;;;;-1.32;81.40;100868.17;206900;1320;140584;-69
2022/01/15 22:34:29;;;;;;;59.20;25.90;;;;;;;-1.39;81.34;100860.52;208229;1320;140517;-68
2022/01/15 22:39:42;;;;;;;60.70;29.10;;;;;;;-1.43;81.25;100856.13;208403;1320;140473;-74
2022/01/15 22:44:49;;;;;;;61.00;27.20;;;;;;;-1.41;81.34;100856.02;207163;1321;143187;-74
2022/01/15 22:49:52;;;;;;;53.10;28.30;;;;;;;-1.39;81.32;100853.58;207257;1320;140708;-72
2022/01/15 22:55:01;;;;;;;50.50;22.90;;;;;;;-1.40;81.52;100847.92;207318;1323;140598;-76
2022/01/15 23:00:18;;;;;;;49.70;24.20;;;;;;;-1.41;81.50;100851.09;207680;1319;140447;-77
2022/01/15 23:05:21;;;;;;;75.60;37.60;;;;;;;-1.33;81.60;100835.58;208190;1316;142263;-73
2022/01/15 23:11:26;;;;;;;51.80;27.20;;;;;;;-1.32;81.47;100837.08;207368;1323;140599;-67
2022/01/15 23:16:41;;;;;;;68.00;30.20;;;;;;;-1.30;81.57;100831.52;207529;1323;140444;-65
2022/01/15 23:21:51;;;;;;;56.10;24.60;;;;;;;-1.30;81.73;100832.17;206545;1320;139791;-68
2022/01/15 23:26:59;;;;;;;54.10;25.30;;;;;;;-1.30;81.62;100824.77;206503;1321;139808;-68
2022/01/15 23:32:03;;;;;;;42.20;20.60;;;;;;;-1.33;81.65;100824.10;207017;1321;141244;-67
2022/01/15 23:37:06;;;;;;;45.80;23.20;;;;;;;-1.35;81.49;100803.02;207074;1320;140415;-68
2022/01/15 23:42:13;;;;;;;54.90;24.80;;;;;;;-1.31;82.14;100805.33;206865;1321;140745;-66
2022/01/15 23:47:32;;;;;;;49.50;22.20;;;;;;;-1.27;82.08;100799.20;207266;1319;140223;-67